Time;durP1;ratioP1;P1;durP2;ratioP2;P2;SDS_P1;SDS_P2;PMS_P1;PMS_P2;Temp;Humidity;BMP_temperature;BMP_pressure;BME280_temperature;BME280_humidity;BME280_pressure;Samples;Min_cycle;Max_cycle;Signal;HPM_P1;HPM_P2
2024/04/06 00:01:45;;;;;;;;;;;;;;;1.09;100.00;100736.75;5052913;28;20377;-66
2024/04/06 00:04:11;;;;;;;;;;;;;;;1.09;100.00;100731.50;5053968;28;19921;-67
2024/04/06 00:06:36;;;;;;;;;;;;;;;1.11;100.00;100734.00;5053810;28;19927;-67
2024/04/06 00:09:02;;;;;;;;;;;;;;;1.16;100.00;100734.56;5053790;28;19970;-66
2024/04/06 00:11:28;;;;;;;;;;;;;;;1.18;100.00;100733.53;5053981;28;19920;-69
2024/04/06 00:13:53;;;;;;;;;;;;;;;1.19;100.00;100722.09;5054551;28;20490;-70
2024/04/06 00:16:19;;;;;;;;;;;;;;;1.18;100.00;100724.81;5053456;28;20410;-66
2024/04/06 00:18:44;;;;;;;;;;;;;;;1.16;100.00;100724.91;5053701;28;19928;-66
2024/04/06 00:21:10;;;;;;;;;;;;;;;1.14;100.00;100720.69;5053483;28;19921;-69
2024/04/06 00:23:35;;;;;;;;;;;;;;;1.13;100.00;100726.88;5053246;28;19928;-68
2024/04/06 00:26:01;;;;;;;;;;;;;;;1.12;100.00;100730.44;5053599;28;20035;-69
2024/04/06 00:28:26;;;;;;;;;;;;;;;1.14;100.00;100721.53;5053105;28;19992;-68
2024/04/06 00:30:54;;;;;;;;;;;;;;;1.18;100.00;100725.66;5052979;28;20031;-67
2024/04/06 00:33:19;;;;;;;;;;;;;;;1.20;100.00;100717.69;5054066;28;19978;-66
2024/04/06 00:35:45;;;;;;;;;;;;;;;1.21;100.00;100717.56;5060213;28;19921;-66
2024/04/06 00:38:10;;;;;;;;;;;;;;;1.21;100.00;100714.94;5060027;28;19920;-64
2024/04/06 00:40:35;;;;;;;;;;;;;;;1.28;100.00;100715.38;5054388;28;19921;-68
2024/04/06 00:43:01;;;;;;;;;;;;;;;1.33;100.00;100712.44;5054453;28;19927;-65
2024/04/06 00:45:26;;;;;;;;;;;;;;;1.33;100.00;100713.25;5052552;28;19921;-67
2024/04/06 00:47:52;;;;;;;;;;;;;;;1.33;100.00;100713.25;5052383;28;19921;-65
2024/04/06 00:50:18;;;;;;;;;;;;;;;1.32;100.00;100716.84;5052483;28;20307;-68
2024/04/06 00:52:43;;;;;;;;;;;;;;;1.35;100.00;100724.50;5052154;28;20281;-66
2024/04/06 00:55:08;;;;;;;;;;;;;;;1.34;100.00;100719.34;5052119;28;20349;-67
2024/04/06 00:57:35;;;;;;;;;;;;;;;1.39;100.00;100718.09;5052029;28;20461;-67
2024/04/06 01:00:00;;;;;;;;;;;;;;;1.42;100.00;100717.88;5052410;28;19932;-68
2024/04/06 01:02:25;;;;;;;;;;;;;;;1.44;100.00;100718.59;5052135;28;19921;-70
2024/04/06 01:04:51;;;;;;;;;;;;;;;1.41;100.00;100718.81;5051042;28;20015;-67
2024/04/06 01:07:16;;;;;;;;;;;;;;;1.37;100.00;100727.00;5052885;28;19921;-70
2024/04/06 01:09:42;;;;;;;;;;;;;;;1.36;100.00;100723.53;5051912;28;19920;-67
2024/04/06 01:12:07;;;;;;;;;;;;;;;1.37;100.00;100719.97;5051861;28;19925;-67
2024/04/06 01:14:32;;;;;;;;;;;;;;;1.40;100.00;100717.13;5053194;28;19921;-67
2024/04/06 01:16:58;;;;;;;;;;;;;;;1.42;100.00;100712.63;5060935;28;19924;-67
2024/04/06 01:19:23;;;;;;;;;;;;;;;1.44;100.00;100721.22;5061358;28;19967;-68
2024/04/06 01:21:48;;;;;;;;;;;;;;;1.47;100.00;100709.72;5051933;28;19999;-69
2024/04/06 01:24:26;;;;;;;;;;;;;;;1.47;100.00;100720.22;5051615;28;19920;-65
2024/04/06 01:26:52;;;;;;;;;;;;;;;1.45;100.00;100701.94;5050666;28;19977;-71
2024/04/06 01:29:18;;;;;;;;;;;;;;;1.43;100.00;100705.59;5052141;28;19932;-69
2024/04/06 01:31:45;;;;;;;;;;;;;;;1.43;100.00;100698.56;5053163;28;19927;-67
2024/04/06 01:34:10;;;;;;;;;;;;;;;1.45;100.00;100694.06;5058119;28;19925;-68
2024/04/06 01:36:36;;;;;;;;;;;;;;;1.47;100.00;100689.56;5061586;28;19940;-69
2024/04/06 01:39:02;;;;;;;;;;;;;;;1.48;100.00;100680.72;5053529;28;19928;-66
2024/04/06 01:41:27;;;;;;;;;;;;;;;1.51;100.00;100685.75;5051803;28;19929;-69
2024/04/06 01:43:53;;;;;;;;;;;;;;;1.51;100.00;100680.50;5051438;28;20342;-72
2024/04/06 01:46:19;;;;;;;;;;;;;;;1.54;100.00;100680.31;5051719;28;20011;-70
2024/04/06 01:48:45;;;;;;;;;;;;;;;1.51;100.00;100675.25;5050294;28;19960;-65
2024/04/06 01:51:10;;;;;;;;;;;;;;;1.49;100.00;100671.91;5051673;28;19968;-67
2024/04/06 01:53:35;;;;;;;;;;;;;;;1.52;100.00;100666.44;5051058;28;20046;-69
2024/04/06 01:56:00;;;;;;;;;;;;;;;1.57;100.00;100671.38;5051490;28;19921;-69
2024/04/06 01:58:26;;;;;;;;;;;;;;;1.60;100.00;100678.19;5051636;28;20435;-69
2024/04/06 02:00:51;;;;;;;;;;;;;;;1.63;100.00;100677.97;5051615;28;20384;-68
2024/04/06 02:03:16;;;;;;;;;;;;;;;1.63;100.00;100683.22;5051448;28;20315;-69
2024/04/06 02:05:42;;;;;;;;;;;;;;;1.66;100.00;100670.72;5051228;28;20285;-68
2024/04/06 02:08:07;;;;;;;;;;;;;;;1.67;100.00;100676.81;5051333;28;20418;-67
2024/04/06 02:10:32;;;;;;;;;;;;;;;1.68;100.00;100673.22;5050122;28;20388;-69
2024/04/06 02:12:58;;;;;;;;;;;;;;;1.70;100.00;100679.22;5051436;28;19931;-68
2024/04/06 02:15:23;;;;;;;;;;;;;;;1.74;100.00;100678.06;5049903;28;19921;-71
2024/04/06 02:17:49;;;;;;;;;;;;;;;1.72;100.00;100678.16;5050190;28;19921;-65
2024/04/06 02:20:14;;;;;;;;;;;;;;;1.66;100.00;100675.13;5049845;28;20290;-67
2024/04/06 02:22:39;;;;;;;;;;;;;;;1.66;100.00;100677.75;5051490;28;19966;-68
2024/04/06 02:25:05;;;;;;;;;;;;;;;1.68;100.00;100678.47;5053624;28;19967;-66
2024/04/06 02:27:32;;;;;;;;;;;;;;;1.70;100.00;100674.81;5055176;28;20036;-68
2024/04/06 02:29:57;;;;;;;;;;;;;;;1.75;100.00;100671.88;5055187;28;20477;-68
2024/04/06 02:32:23;;;;;;;;;;;;;;;1.80;100.00;100669.75;5055146;28;19956;-65
2024/04/06 02:34:48;;;;;;;;;;;;;;;1.82;100.00;100670.50;5055197;28;19936;-69
2024/04/06 02:37:14;;;;;;;;;;;;;;;1.77;100.00;100664.72;5055068;28;19920;-68
2024/04/06 02:39:39;;;;;;;;;;;;;;;1.71;100.00;100659.88;5055002;28;19947;-67
2024/04/06 02:42:05;;;;;;;;;;;;;;;1.66;100.00;100664.63;5054934;28;20038;-69
2024/04/06 02:44:30;;;;;;;;;;;;;;;1.63;100.00;100662.22;5054814;28;19921;-65
2024/04/06 02:46:55;;;;;;;;;;;;;;;1.62;100.00;100663.16;5055001;28;19943;-68
2024/04/06 02:49:21;;;;;;;;;;;;;;;1.67;100.00;100666.31;5054843;28;19920;-67
2024/04/06 02:51:46;;;;;;;;;;;;;;;1.70;100.00;100671.34;5054591;28;19927;-69
2024/04/06 02:54:11;;;;;;;;;;;;;;;1.75;100.00;100677.13;5054877;28;20323;-65
2024/04/06 02:56:38;;;;;;;;;;;;;;;1.74;100.00;100672.81;5054744;28;20311;-69
2024/04/06 02:59:03;;;;;;;;;;;;;;;1.70;100.00;100681.84;5054826;28;19931;-69
2024/04/06 03:01:29;;;;;;;;;;;;;;;1.72;100.00;100682.56;5055512;28;19945;-67
2024/04/06 03:03:54;;;;;;;;;;;;;;;1.69;100.00;100688.88;5054402;28;19927;-69
2024/04/06 03:06:19;;;;;;;;;;;;;;;1.61;100.00;100679.88;5057005;28;20388;-70
2024/04/06 03:08:45;;;;;;;;;;;;;;;1.61;100.00;100677.25;5059247;28;19921;-72
2024/04/06 03:11:10;;;;;;;;;;;;;;;1.64;100.00;100674.41;5063930;28;20384;-65
2024/04/06 03:13:35;;;;;;;;;;;;;;;1.68;100.00;100676.69;5063845;28;20031;-66
2024/04/06 03:16:00;;;;;;;;;;;;;;;1.72;100.00;100672.06;5057224;28;20016;-64
2024/04/06 03:18:26;;;;;;;;;;;;;;;1.74;100.00;100684.16;5054190;28;19921;-67
2024/04/06 03:20:52;;;;;;;;;;;;;;;1.79;100.00;100681.22;5054142;28;19921;-67
2024/04/06 03:23:17;;;;;;;;;;;;;;;1.79;100.00;100683.84;5054689;28;19952;-71
2024/04/06 03:25:42;;;;;;;;;;;;;;;1.74;100.00;100685.94;5054154;28;20027;-67
2024/04/06 03:28:09;;;;;;;;;;;;;;;1.72;100.00;100682.56;5054684;28;19936;-69
2024/04/06 03:30:35;;;;;;;;;;;;;;;1.69;100.00;100672.28;5054050;28;19932;-68
2024/04/06 03:33:00;;;;;;;;;;;;;;;1.70;100.00;100679.22;5052878;28;20308;-67
2024/04/06 03:35:25;;;;;;;;;;;;;;;1.75;100.00;100685.00;5055798;28;19928;-70
2024/04/06 03:37:51;;;;;;;;;;;;;;;1.76;100.00;100674.38;5041971;28;19921;-66
2024/04/06 03:40:17;;;;;;;;;;;;;;;1.75;100.00;100685.84;5062967;28;19920;-66
2024/04/06 03:42:56;;;;;;;;;;;;;;;1.76;100.00;100689.31;5064918;28;19967;-67
2024/04/06 03:45:21;;;;;;;;;;;;;;;1.78;100.00;100692.66;5063915;28;19928;-67
2024/04/06 03:47:47;;;;;;;;;;;;;;;1.81;100.00;100689.81;5057815;28;19920;-71
2024/04/06 03:50:13;;;;;;;;;;;;;;;1.82;100.00;100684.44;5053744;28;20470;-71
2024/04/06 03:52:39;;;;;;;;;;;;;;;1.88;100.00;100691.06;5054840;28;19920;-66
2024/04/06 03:55:04;;;;;;;;;;;;;;;1.92;100.00;100682.00;5053645;28;19965;-68
2024/04/06 03:57:30;;;;;;;;;;;;;;;1.96;100.00;100687.88;5053603;28;20070;-69
2024/04/06 03:59:55;;;;;;;;;;;;;;;1.96;100.00;100686.09;5053501;28;20248;-68
2024/04/06 04:02:21;;;;;;;;;;;;;;;1.98;100.00;100684.19;5053452;28;20419;-69
2024/04/06 04:04:46;;;;;;;;;;;;;;;1.99;100.00;100680.63;5054439;28;19963;-67
2024/04/06 04:07:11;;;;;;;;;;;;;;;2.02;100.00;100680.38;5053876;28;20437;-71
2024/04/06 04:09:37;;;;;;;;;;;;;;;2.02;100.00;100674.31;5052926;28;19921;-66
2024/04/06 04:12:02;;;;;;;;;;;;;;;2.05;100.00;100669.69;5052523;28;20307;-72
2024/04/06 04:14:28;;;;;;;;;;;;;;;2.10;100.00;100669.34;5054535;28;19928;-68
2024/04/06 04:16:53;;;;;;;;;;;;;;;2.15;100.00;100681.22;5053150;28;20464;-71
2024/04/06 04:19:18;;;;;;;;;;;;;;;2.19;100.00;100676.56;5051724;28;19921;-66
2024/04/06 04:21:46;;;;;;;;;;;;;;;2.17;100.00;100671.41;5053837;28;19921;-69
2024/04/06 04:24:11;;;;;;;;;;;;;;;2.25;100.00;100680.53;5054874;28;19920;-68
2024/04/06 04:26:38;;;;;;;;;;;;;;;2.33;100.00;100683.47;5061136;28;19924;-68
2024/04/06 04:29:04;;;;;;;;;;;;;;;2.36;100.00;100685.88;5063421;28;19947;-68
2024/04/06 04:31:32;;;;;;;;;;;;;;;2.41;100.00;100687.19;5057603;28;19924;-69
2024/04/06 04:33:58;;;;;;;;;;;;;;;2.46;100.00;100690.31;5053880;28;19924;-70
2024/04/06 04:36:23;;;;;;;;;;;;;;;2.52;100.00;100693.44;5052468;28;19947;-71
2024/04/06 04:38:49;;;;;;;;;;;;;;;2.48;100.00;100700.72;5053395;28;19946;-68
2024/04/06 04:41:15;;;;;;;;;;;;;;;2.48;100.00;100690.22;5053373;28;20339;-71
2024/04/06 04:43:40;;;;;;;;;;;;;;;2.55;100.00;100687.97;5053185;28;19921;-68
2024/04/06 04:46:06;;;;;;;;;;;;;;;2.60;100.00;100691.09;5051433;28;20007;-67
2024/04/06 04:48:50;;;;;;;;;;;;;;;2.53;100.00;100700.38;5053006;28;19924;-66
2024/04/06 04:51:16;;;;;;;;;;;;;;;2.51;100.00;100695.25;5055004;28;19960;-70
2024/04/06 04:53:41;;;;;;;;;;;;;;;2.46;100.00;100692.13;5053086;28;19920;-67
2024/04/06 04:56:06;;;;;;;;;;;;;;;2.45;100.00;100695.69;5052582;28;19920;-67
2024/04/06 04:58:32;;;;;;;;;;;;;;;2.43;100.00;100708.13;5068596;28;19920;-68
2024/04/06 05:00:57;;;;;;;;;;;;;;;2.41;100.00;100696.88;5053680;28;20361;-66
2024/04/06 05:03:22;;;;;;;;;;;;;;;2.41;100.00;100707.38;5052889;28;20364;-69
2024/04/06 05:05:48;;;;;;;;;;;;;;;2.45;100.00;100708.84;5052193;28;19932;-71
2024/04/06 05:08:13;;;;;;;;;;;;;;;2.46;100.00;100700.84;5052510;28;19928;-70
2024/04/06 05:10:40;;;;;;;;;;;;;;;2.52;100.00;100704.81;5059074;28;19928;-69
2024/04/06 05:13:05;;;;;;;;;;;;;;;2.61;100.00;100703.31;5056899;28;19943;-69
2024/04/06 05:15:30;;;;;;;;;;;;;;;2.68;100.00;100700.09;5052352;28;20380;-70
2024/04/06 05:17:56;;;;;;;;;;;;;;;2.75;100.00;100701.31;5057035;28;20399;-71
2024/04/06 05:20:21;;;;;;;;;;;;;;;2.81;100.00;100710.53;5055819;28;19971;-71
2024/04/06 05:22:46;;;;;;;;;;;;;;;2.87;100.00;100711.88;5059245;28;19921;-68
2024/04/06 05:25:12;;;;;;;;;;;;;;;2.90;100.00;100711.66;5054787;28;19927;-68
2024/04/06 05:27:37;;;;;;;;;;;;;;;2.92;100.00;100712.38;5051543;28;20019;-69
2024/04/06 05:30:04;;;;;;;;;;;;;;;2.85;100.00;100713.78;5051607;28;20355;-70
2024/04/06 05:32:30;;;;;;;;;;;;;;;2.87;100.00;100719.75;5052739;28;20360;-69
2024/04/06 05:34:55;;;;;;;;;;;;;;;2.87;100.00;100719.75;5059374;28;19966;-67
2024/04/06 05:37:20;;;;;;;;;;;;;;;2.72;100.00;100716.50;5067534;28;19905;-68
2024/04/06 05:39:45;;;;;;;;;;;;;;;2.73;100.00;100711.13;5051805;28;19921;-69
2024/04/06 05:42:11;;;;;;;;;;;;;;;2.81;100.00;100710.53;5051428;28;19940;-70
2024/04/06 05:44:36;;;;;;;;;;;;;;;2.80;100.00;100714.97;5051228;28;19921;-68
2024/04/06 05:47:01;;;;;;;;;;;;;;;2.83;100.00;100716.53;5050006;28;20046;-70
2024/04/06 05:49:27;;;;;;;;;;;;;;;2.89;100.00;100725.75;5050989;28;19920;-69
2024/04/06 05:51:52;;;;;;;;;;;;;;;2.93;100.00;100720.16;5051717;28;19920;-71
2024/04/06 05:54:17;;;;;;;;;;;;;;;2.98;100.00;100719.81;5051298;28;19968;-70
2024/04/06 05:56:43;;;;;;;;;;;;;;;3.02;100.00;100729.16;5051817;28;20276;-69
2024/04/06 05:59:08;;;;;;;;;;;;;;;2.97;100.00;100726.88;5054440;28;19931;-70
2024/04/06 06:01:34;;;;;;;;;;;;;;;3.02;100.00;100729.16;5061460;28;19921;-69
2024/04/06 06:03:59;;;;;;;;;;;;;;;3.04;100.00;100727.25;5059453;28;19925;-69
2024/04/06 06:06:24;;;;;;;;;;;;;;;3.10;100.00;100732.03;5059187;28;19920;-70
2024/04/06 06:08:50;;;;;;;;;;;;;;;3.20;100.00;100733.03;5061561;28;19921;-70
2024/04/06 06:11:15;;;;;;;;;;;;;;;3.26;100.00;100726.47;5064277;28;19943;-68
2024/04/06 06:13:41;;;;;;;;;;;;;;;3.33;100.00;100728.50;5058744;28;19924;-70
2024/04/06 06:16:06;;;;;;;;;;;;;;;3.43;100.00;100728.63;5058083;28;20413;-69
2024/04/06 06:18:31;;;;;;;;;;;;;;;3.55;100.00;100726.88;5057807;28;20430;-72
2024/04/06 06:20:57;;;;;;;;;;;;;;;3.57;100.00;100715.25;5056643;28;19920;-69
2024/04/06 06:23:22;;;;;;;;;;;;;;;3.62;100.00;100718.38;5056371;28;19921;-71
2024/04/06 06:25:47;;;;;;;;;;;;;;;3.62;100.00;100717.53;5057669;28;19925;-72
2024/04/06 06:28:14;;;;;;;;;;;;;;;3.67;100.00;100723.28;5058660;28;19931;-70
2024/04/06 06:30:42;;;;;;;;;;;;;;;3.76;100.00;100716.44;5058639;28;19924;-71
2024/04/06 06:33:08;;;;;;;;;;;;;;;3.85;100.00;100718.38;5063126;28;19927;-70
2024/04/06 06:35:34;;;;;;;;;;;;;;;3.85;100.00;100719.22;5059494;28;19920;-70
2024/04/06 06:37:59;;;;;;;;;;;;;;;3.78;100.00;100719.81;5058702;28;20006;-69
2024/04/06 06:40:26;;;;;;;;;;;;;;;3.65;100.00;100717.28;5058182;28;19921;-68
2024/04/06 06:42:51;;;;;;;;;;;;;;;3.71;100.00;100727.34;5057693;28;19920;-72
2024/04/06 06:45:17;;;;;;;;;;;;;;;3.82;100.00;100719.47;5056734;28;19975;-69
2024/04/06 06:47:42;;;;;;;;;;;;;;;3.94;100.00;100728.19;5056722;28;19920;-68
2024/04/06 06:50:08;;;;;;;;;;;;;;;3.99;100.00;100723.38;5056753;28;19925;-68
2024/04/06 06:52:34;;;;;;;;;;;;;;;4.00;100.00;100720.63;5057695;28;19921;-69
2024/04/06 06:54:59;;;;;;;;;;;;;;;4.02;100.00;100731.03;5057763;28;20281;-71
2024/04/06 06:57:24;;;;;;;;;;;;;;;4.06;100.00;100734.31;5058136;28;19921;-73
2024/04/06 06:59:50;;;;;;;;;;;;;;;4.21;100.00;100727.78;5057567;28;19924;-71
2024/04/06 07:02:15;;;;;;;;;;;;;;;4.37;100.00;100725.63;5058026;28;20470;-69
2024/04/06 07:04:40;;;;;;;;;;;;;;;4.39;100.00;100734.25;5057907;28;19924;-70
2024/04/06 07:07:06;;;;;;;;;;;;;;;4.41;100.00;100737.59;5073208;28;19944;-72
2024/04/06 07:09:31;;;;;;;;;;;;;;;4.41;100.00;100734.97;5058717;28;19921;-70
2024/04/06 07:11:56;;;;;;;;;;;;;;;4.36;100.00;100739.75;5087234;28;20315;-68
2024/04/06 07:14:22;;;;;;;;;;;;;;;4.31;100.00;100757.72;5054828;28;20366;-69
2024/04/06 07:16:48;;;;;;;;;;;;;;;4.26;100.00;100752.00;5056769;28;20388;-70
2024/04/06 07:19:16;;;;;;;;;;;;;;;4.09;100.00;100758.63;5054436;28;20426;-67
2024/04/06 07:21:41;;;;;;;;;;;;;;;3.96;100.00;100764.00;5054382;28;20008;-70
2024/04/06 07:24:06;;;;;;;;;;;;;;;3.90;100.00;100759.22;5053079;28;20455;-69
2024/04/06 07:26:33;;;;;;;;;;;;;;;3.82;100.00;100756.34;5052562;28;19948;-69
2024/04/06 07:28:58;;;;;;;;;;;;;;;3.75;100.00;100765.66;5086450;28;19929;-70
2024/04/06 07:31:24;;;;;;;;;;;;;;;3.84;100.00;100769.41;5054607;28;20027;-69
2024/04/06 07:33:50;;;;;;;;;;;;;;;3.84;100.00;100772.03;5054286;28;19943;-72
2024/04/06 07:36:15;;;;;;;;;;;;;;;3.85;100.00;100781.59;5054282;28;20015;-69
2024/04/06 07:38:40;;;;;;;;;;;;;;;3.81;100.00;100781.00;5053062;28;19927;-72
2024/04/06 07:41:05;;;;;;;;;;;;;;;3.83;100.00;100783.53;5072610;28;19928;-66
2024/04/06 07:43:31;;;;;;;;;;;;;;;3.93;100.00;100789.75;5073424;28;20307;-68
2024/04/06 07:45:56;;;;;;;;;;;;;;;3.92;100.00;100794.19;5074322;28;19924;-67
2024/04/06 07:48:22;;;;;;;;;;;;;;;3.88;100.00;100791.91;5073741;28;20085;-69
2024/04/06 07:50:48;;;;;;;;;;;;;;;3.78;100.00;100793.59;5073897;28;19924;-68
2024/04/06 07:53:13;;;;;;;;;;;;;;;3.88;100.00;100792.75;5073884;28;20379;-69
2024/04/06 07:55:39;;;;;;;;;;;;;;;4.01;100.00;100787.34;5074185;28;20357;-69
2024/04/06 07:58:04;;;;;;;;;;;;;;;4.17;100.00;100794.91;5074590;28;19964;-68
2024/04/06 08:00:30;;;;;;;;;;;;;;;4.23;100.00;100797.06;5074950;28;19920;-69
2024/04/06 08:02:55;;;;;;;;;;;;;;;4.39;100.00;100808.06;5072753;28;20019;-68
2024/04/06 08:05:21;;;;;;;;;;;;;;;4.49;100.00;100805.53;5073764;28;19925;-69
2024/04/06 08:07:46;;;;;;;;;;;;;;;4.55;100.00;100812.94;5073209;28;20391;-66
2024/04/06 08:10:19;;;;;;;;;;;;;;;4.43;100.00;100808.66;5072809;28;19991;-68
2024/04/06 08:12:45;;;;;;;;;;;;;;;4.38;100.00;100813.47;5072754;28;20382;-69
2024/04/06 08:15:10;;;;;;;;;;;;;;;4.36;100.00;100816.22;5073367;28;19920;-67
2024/04/06 08:17:39;;;;;;;;;;;;;;;4.39;100.00;100817.78;5073971;28;20015;-67
2024/04/06 08:20:05;;;;;;;;;;;;;;;4.49;100.00;100822.19;5073647;28;20376;-67
2024/04/06 08:22:31;;;;;;;;;;;;;;;4.56;100.00;100814.63;5073528;28;20434;-68
2024/04/06 08:24:56;;;;;;;;;;;;;;;4.63;100.00;100827.22;5073221;28;19921;-67
2024/04/06 08:27:22;;;;;;;;;;;;;;;4.74;100.00;100825.50;5074475;28;20497;-67
2024/04/06 08:29:48;;;;;;;;;;;;;;;4.72;100.00;100827.44;5073887;28;19924;-67
2024/04/06 08:32:13;;;;;;;;;;;;;;;4.76;100.00;100823.59;5073812;28;20295;-66
2024/04/06 08:34:38;;;;;;;;;;;;;;;4.71;100.00;100823.13;5073630;28;19943;-66
2024/04/06 08:37:04;;;;;;;;;;;;;;;4.62;100.00;100820.25;5073000;28;19926;-70
2024/04/06 08:39:30;;;;;;;;;;;;;;;4.72;100.00;100808.97;5073411;28;20022;-68
2024/04/06 08:41:56;;;;;;;;;;;;;;;4.68;100.00;100810.19;5073257;28;20298;-68
2024/04/06 08:44:27;;;;;;;;;;;;;;;4.68;100.00;100811.03;5074447;28;19946;-67
2024/04/06 08:46:52;;;;;;;;;;;;;;;4.70;100.00;100816.16;5072739;28;19943;-68
2024/04/06 08:49:18;;;;;;;;;;;;;;;4.61;100.00;100808.00;5072496;28;20395;-73
2024/04/06 08:51:46;;;;;;;;;;;;;;;4.65;100.00;100803.34;5071827;28;19920;-71
2024/04/06 08:54:11;;;;;;;;;;;;;;;4.73;100.00;100802.72;5072482;28;19928;-68
2024/04/06 08:56:36;;;;;;;;;;;;;;;4.78;100.00;100800.56;5075903;28;19920;-69
2024/04/06 08:59:02;;;;;;;;;;;;;;;4.97;100.00;100803.38;5077948;28;19932;-68
2024/04/06 09:01:28;;;;;;;;;;;;;;;5.08;100.00;100798.03;5076400;28;19928;-68
2024/04/06 09:03:53;;;;;;;;;;;;;;;5.14;100.00;100801.97;5072200;28;19926;-69
2024/04/06 09:06:18;;;;;;;;;;;;;;;5.17;100.00;100802.56;5072573;28;20042;-70
2024/04/06 09:08:44;;;;;;;;;;;;;;;5.28;100.00;100806.97;5072633;28;19921;-68
2024/04/06 09:11:12;;;;;;;;;;;;;;;5.29;100.00;100803.38;5071593;28;19966;-68
2024/04/06 09:13:38;;;;;;;;;;;;;;;5.22;100.00;100804.84;5073656;28;20098;-69
2024/04/06 09:16:05;;;;;;;;;;;;;;;5.21;100.00;100803.16;5073248;28;19946;-70
2024/04/06 09:18:30;;;;;;;;;;;;;;;5.35;100.00;100794.91;5071788;28;19947;-69
2024/04/06 09:20:56;;;;;;;;;;;;;;;5.46;100.00;100802.78;5072200;28;20300;-69
2024/04/06 09:23:21;;;;;;;;;;;;;;;5.49;100.00;100801.69;5072742;28;19920;-69
2024/04/06 09:25:56;;;;;;;;;;;;;;;5.36;100.00;100798.41;5071063;28;19920;-67
2024/04/06 09:28:23;;;;;;;;;;;;;;;5.21;100.00;100801.38;5087905;28;20379;-69
2024/04/06 09:30:48;;;;;;;;;;;;;;;5.19;100.00;100803.28;5075155;28;19959;-69
2024/04/06 09:33:15;;;;;;;;;;;;;;;5.29;100.00;100803.38;5073388;28;20439;-66
2024/04/06 09:35:41;;;;;;;;;;;;;;;5.42;100.00;100808.44;5072113;28;19974;-69
2024/04/06 09:38:15;;;;;;;;;;;;;;;5.56;100.00;100808.97;5072255;28;19920;-68
2024/04/06 09:40:43;;;;;;;;;;;;;;;5.66;100.00;100808.19;5078419;28;20006;-67
2024/04/06 09:43:08;;;;;;;;;;;;;;;5.70;100.00;100812.25;5083291;28;19996;-65
2024/04/06 09:45:34;;;;;;;;;;;;;;;5.74;100.00;100816.31;5075138;28;19963;-68
2024/04/06 09:48:00;;;;;;;;;;;;;;;5.78;100.00;100821.22;5073324;28;19927;-67
2024/04/06 09:50:25;;;;;;;;;;;;;;;5.73;100.00;100823.38;5072640;28;19952;-68
2024/04/06 09:52:50;;;;;;;;;;;;;;;5.66;100.00;100821.41;5072452;28;20338;-67
2024/04/06 09:55:16;;;;;;;;;;;;;;;5.66;100.00;100819.59;5071022;28;19939;-67
2024/04/06 09:57:41;;;;;;;;;;;;;;;5.67;100.00;100826.56;5072794;28;19924;-65
2024/04/06 10:00:07;;;;;;;;;;;;;;;5.67;100.00;100823.91;5082039;28;19928;-66
2024/04/06 10:02:33;;;;;;;;;;;;;;;5.72;100.00;100827.00;5059444;28;20360;-69
2024/04/06 10:05:00;;;;;;;;;;;;;;;5.70;100.00;100826.28;5072561;28;19985;-68
2024/04/06 10:07:36;;;;;;;;;;;;;;;5.75;100.00;100826.75;5075463;28;19924;-68
2024/04/06 10:10:03;;;;;;;;;;;;;;;5.78;100.00;100818.56;5075411;28;19925;-70
2024/04/06 10:12:35;;;;;;;;;;;;;;;5.88;100.00;100822.09;5071208;28;19928;-66
2024/04/06 10:15:10;;;;;;;;;;;;;;;6.00;100.00;100822.88;5078699;28;19955;-68
2024/04/06 10:17:46;;;;;;;;;;;;;;;6.06;100.00;100825.00;5073482;28;19928;-69
2024/04/06 10:20:13;;;;;;;;;;;;;;;6.10;100.00;100825.59;5072691;28;20384;-69
2024/04/06 10:22:44;;;;;;;;;;;;;;;6.05;100.00;100827.75;5069889;28;20623;-68
2024/04/06 10:25:10;;;;;;;;;;;;;;;6.00;100.00;100827.34;5070495;28;19999;-67
2024/04/06 10:27:41;;;;;;;;;;;;;;;6.01;100.00;100837.78;5071690;28;20019;-69
2024/04/06 10:30:10;;;;;;;;;;;;;;;6.02;100.00;100833.31;5073510;28;19932;-67
2024/04/06 10:32:35;;;;;;;;;;;;;;;5.96;100.00;100842.63;5076504;28;19970;-69
2024/04/06 10:35:01;;;;;;;;;;;;;;;5.79;100.00;100844.03;5075011;28;19924;-69
2024/04/06 10:37:26;;;;;;;;;;;;;;;5.68;100.00;100837.97;5071117;28;19967;-69
2024/04/06 10:39:52;;;;;;;;;;;;;;;5.66;100.00;100839.91;5071012;28;19924;-69
2024/04/06 10:42:17;;;;;;;;;;;;;;;5.62;100.00;100847.25;5071066;28;19928;-69
2024/04/06 10:44:42;;;;;;;;;;;;;;;5.57;100.00;100845.00;5070243;28;20464;-68
2024/04/06 10:47:11;;;;;;;;;;;;;;;5.56;100.00;100837.19;5074104;28;20003;-70
2024/04/06 10:49:36;;;;;;;;;;;;;;;5.57;100.00;100854.72;5074056;28;19924;-68
2024/04/06 10:52:02;;;;;;;;;;;;;;;5.73;100.00;100844.53;5076527;28;20305;-72
2024/04/06 10:54:30;;;;;;;;;;;;;;;6.01;100.00;100852.78;5076273;28;19955;-70
2024/04/06 10:56:56;;;;;;;;;;;;;;;6.21;100.00;100846.66;5076245;28;19927;-67
2024/04/06 10:59:22;;;;;;;;;;;;;;;6.36;100.00;100845.34;5078418;28;20379;-67
2024/04/06 11:01:47;;;;;;;;;;;;;;;6.55;100.00;100841.91;5080642;28;19931;-70
2024/04/06 11:04:13;;;;;;;;;;;;;;;6.69;100.00;100851.28;5077648;28;19924;-68
2024/04/06 11:06:38;;;;;;;;;;;;;;;6.87;100.00;100854.94;5075424;28;20042;-71
2024/04/06 11:09:06;;;;;;;;;;;;;;;6.94;100.00;100852.56;5072310;28;19969;-70
2024/04/06 11:11:34;;;;;;;;;;;;;;;6.92;100.00;100852.72;5072650;28;19967;-69
2024/04/06 11:14:00;;;;;;;;;;;;;;;7.01;100.00;100843.97;5073391;28;19924;-69
2024/04/06 11:16:25;;;;;;;;;;;;;;;7.07;100.00;100848.69;5074153;28;19981;-67
2024/04/06 11:18:51;;;;;;;;;;;;;;;6.97;100.00;100852.31;5074236;28;19920;-68
2024/04/06 11:21:16;;;;;;;;;;;;;;;6.94;100.00;100845.50;5074260;28;19925;-69
2024/04/06 11:23:43;;;;;;;;;;;;;;;6.98;100.00;100848.69;5074594;28;20368;-68
2024/04/06 11:26:11;;;;;;;;;;;;;;;7.07;100.00;100842.56;5073595;28;20465;-70
2024/04/06 11:28:38;;;;;;;;;;;;;;;7.08;100.00;100853.03;5076338;28;20349;-71
2024/04/06 11:31:05;;;;;;;;;;;;;;;6.99;100.00;100851.22;5072714;28;20145;-70
2024/04/06 11:33:31;;;;;;;;;;;;;;;7.02;100.00;100860.69;5074047;28;20020;-69
2024/04/06 11:35:56;;;;;;;;;;;;;;;6.98;100.00;100860.13;5072958;28;20015;-70
2024/04/06 11:38:22;;;;;;;;;;;;;;;6.88;100.00;100859.25;5073390;28;19936;-70
2024/04/06 11:40:47;;;;;;;;;;;;;;;6.78;100.00;100858.41;5072182;28;19924;-70
2024/04/06 11:43:16;;;;;;;;;;;;;;;6.85;100.00;100856.88;5076016;28;19962;-70
2024/04/06 11:45:42;;;;;;;;;;;;;;;7.00;100.00;100860.81;5076538;28;19920;-71
2024/04/06 11:48:07;;;;;;;;;;;;;;;7.08;100.00;100858.31;5080067;28;19925;-72
2024/04/06 11:50:33;;;;;;;;;;;;;;;7.18;100.00;100862.78;5074119;28;20302;-70
2024/04/06 11:52:58;;;;;;;;;;;;;;;7.28;100.00;100866.28;5073740;28;19976;-71
2024/04/06 11:55:23;;;;;;;;;;;;;;;7.24;99.42;100859.59;5074337;28;19925;-72
2024/04/06 11:57:49;;;;;;;;;;;;;;;7.15;99.28;100862.09;5071980;28;20425;-68
2024/04/06 12:00:15;;;;;;;;;;;;;;;7.13;100.00;100871.13;5074479;28;19982;-70
2024/04/06 12:02:41;;;;;;;;;;;;;;;7.10;100.00;100866.13;5070745;28;19992;-71
2024/04/06 12:05:07;;;;;;;;;;;;;;;7.14;100.00;100865.72;5074238;28;19920;-70
2024/04/06 12:07:33;;;;;;;;;;;;;;;7.19;100.00;100867.09;5073279;28;19920;-69
2024/04/06 12:09:59;;;;;;;;;;;;;;;7.14;100.00;100876.31;5071101;28;19937;-70
2024/04/06 12:12:24;;;;;;;;;;;;;;;7.13;100.00;100871.13;5071662;28;19928;-69
2024/04/06 12:14:49;;;;;;;;;;;;;;;7.21;100.00;100865.97;5076280;28;19931;-72
2024/04/06 12:17:22;;;;;;;;;;;;;;;7.25;100.00;100862.13;5072513;28;19931;-72
2024/04/06 12:19:47;;;;;;;;;;;;;;;7.29;100.00;100865.31;5075866;28;20529;-69
2024/04/06 12:22:12;;;;;;;;;;;;;;;7.43;100.00;100864.88;5075300;28;19924;-74
2024/04/06 12:24:40;;;;;;;;;;;;;;;7.36;99.42;100877.03;5073455;28;19935;-70
2024/04/06 12:27:05;;;;;;;;;;;;;;;7.19;99.21;100883.00;5071365;28;19924;-71
2024/04/06 12:29:31;;;;;;;;;;;;;;;7.23;99.28;100889.69;5072058;28;19989;-70
2024/04/06 12:31:57;;;;;;;;;;;;;;;7.30;98.65;100891.66;5074130;28;19925;-70